createdAt,value
2023-05-20T00:01:15.653Z,96576.69
2023-05-20T00:03:42.723Z,96571.06
2023-05-20T00:06:09.718Z,96582.09
2023-05-20T00:08:36.635Z,96587.31
2023-05-20T00:11:03.570Z,96601.00
2023-05-20T00:13:30.524Z,96579.91
2023-05-20T00:15:57.478Z,96598.38
2023-05-20T00:18:24.392Z,96591.84
2023-05-20T00:20:51.315Z,96574.47
2023-05-20T00:23:18.256Z,96556.81
2023-05-20T00:25:45.153Z,96565.72
2023-05-20T00:28:12.025Z,96591.28
2023-05-20T00:30:42.524Z,96592.72
2023-05-20T00:33:09.607Z,96569.06
2023-05-20T00:35:36.888Z,96558.13
2023-05-20T00:38:03.843Z,96552.81
2023-05-20T00:40:30.719Z,96541.84
2023-05-20T00:42:57.808Z,96557.88
2023-05-20T00:45:25.260Z,96548.56
2023-05-20T00:47:52.652Z,96574.91
2023-05-20T00:50:19.793Z,96569.03
2023-05-20T00:52:48.465Z,96534.00
2023-05-20T00:55:15.793Z,96569.59
2023-05-20T00:57:42.885Z,96566.94
2023-05-20T01:00:10.984Z,96536.69
2023-05-20T01:02:38.166Z,96571.72
2023-05-20T01:05:05.530Z,96561.44
2023-05-20T01:07:33.111Z,96550.22
2023-05-20T01:10:00.806Z,96542.38
2023-05-20T01:12:56.101Z,96518.69
2023-05-20T01:15:27.164Z,96556.72
2023-05-20T01:18:02.028Z,96554.63
2023-05-20T01:20:32.803Z,96565.81
2023-05-20T01:22:59.990Z,96559.75
2023-05-20T01:25:27.046Z,96550.84
2023-05-20T01:27:58.114Z,96564.63
2023-05-20T01:30:33.959Z,96523.22
2023-05-20T01:33:05.464Z,96546.53
2023-05-20T01:35:32.824Z,96521.44
2023-05-20T01:38:00.989Z,96550.41
2023-05-20T01:40:28.588Z,96518.88
2023-05-20T01:42:56.620Z,96508.63
2023-05-20T01:45:24.758Z,96534.25
2023-05-20T01:47:51.916Z,96534.75
2023-05-20T01:50:19.409Z,96518.50
2023-05-20T01:52:46.341Z,96538.06
2023-05-20T01:55:13.996Z,96524.13
2023-05-20T01:57:40.980Z,96545.78
2023-05-20T02:00:08.583Z,96538.63
2023-05-20T02:02:41.358Z,96515.56
2023-05-20T02:05:11.049Z,96529.34
2023-05-20T02:07:37.993Z,96528.91
2023-05-20T02:10:05.460Z,96509.44
2023-05-20T02:12:32.442Z,96522.50
2023-05-20T02:14:59.387Z,96511.75
2023-05-20T02:17:27.246Z,96525.22
2023-05-20T02:19:54.240Z,96500.66
2023-05-20T02:22:21.103Z,96464.69
2023-05-20T02:24:48.004Z,96498.69
2023-05-20T02:27:15.894Z,96487.75
2023-05-20T02:29:44.560Z,96506.19
2023-05-20T02:32:12.740Z,96479.78
2023-05-20T02:34:39.727Z,96488.53
2023-05-20T02:37:06.752Z,96510.84
2023-05-20T02:39:33.686Z,96491.38
2023-05-20T02:42:00.598Z,96522.72
2023-05-20T02:44:27.619Z,96501.06
2023-05-20T02:46:55.021Z,96519.09
2023-05-20T02:49:22.094Z,96491.31
2023-05-20T02:51:49.125Z,96531.88
2023-05-20T02:54:16.759Z,96516.91
2023-05-20T02:56:43.646Z,96503.69
2023-05-20T02:59:10.519Z,96512.28
2023-05-20T03:01:37.475Z,96510.59
2023-05-20T03:04:04.941Z,96529.16
2023-05-20T03:06:34.840Z,96525.75
2023-05-20T03:09:01.836Z,96500.41
2023-05-20T03:11:29.818Z,96516.03
2023-05-20T03:13:56.855Z,96533.13
2023-05-20T03:16:25.624Z,96505.94
2023-05-20T03:18:52.582Z,96541.19
2023-05-20T03:21:19.727Z,96514.22
2023-05-20T03:23:49.577Z,96527.50
2023-05-20T03:26:17.157Z,96524.09
2023-05-20T03:28:44.866Z,96531.38
2023-05-20T03:31:11.890Z,96530.16
2023-05-20T03:33:38.900Z,96532.91
2023-05-20T03:36:06.861Z,96538.53
2023-05-20T03:38:34.650Z,96532.75
2023-05-20T03:41:01.588Z,96526.53
2023-05-20T03:43:29.103Z,96511.84
2023-05-20T03:45:56.754Z,96532.59
2023-05-20T03:48:23.773Z,96533.50
2023-05-20T03:50:51.087Z,96527.44
2023-05-20T03:53:19.473Z,96520.22
2023-05-20T03:55:46.637Z,96538.72
2023-05-20T03:58:15.615Z,96534.53
2023-05-20T04:00:42.765Z,96528.47
2023-05-20T04:03:10.774Z,96528.66
2023-05-20T04:05:37.943Z,96520.72
2023-05-20T04:08:13.854Z,96549.13
2023-05-20T04:10:43.984Z,96558.72
2023-05-20T04:13:12.105Z,96548.84
2023-05-20T04:15:39.272Z,96528.34
2023-05-20T04:18:06.640Z,96507.75
2023-05-20T04:20:33.726Z,96550.78
2023-05-20T04:23:01.029Z,96536.53
2023-05-20T04:25:28.001Z,96516.78
2023-05-20T04:27:55.430Z,96528.41
2023-05-20T04:30:22.601Z,96517.66
2023-05-20T04:32:51.108Z,96538.72
2023-05-20T04:35:18.558Z,96503.88
2023-05-20T04:37:53.223Z,96537.72
2023-05-20T04:40:21.281Z,96523.56
2023-05-20T04:42:48.303Z,96513.09
2023-05-20T04:45:15.729Z,96539.59
2023-05-20T04:47:44.600Z,96539.22
2023-05-20T04:50:12.776Z,96548.75
2023-05-20T04:52:46.247Z,96532.09
2023-05-20T04:55:13.867Z,96548.31
2023-05-20T04:57:42.580Z,96544.06
2023-05-20T05:00:13.521Z,96537.66
2023-05-20T05:02:41.219Z,96530.69
2023-05-20T05:05:08.682Z,96533.69
2023-05-20T05:07:36.389Z,96531.31
2023-05-20T05:10:03.776Z,96535.25
2023-05-20T05:12:32.388Z,96537.88
2023-05-20T05:14:59.652Z,96509.84
2023-05-20T05:17:29.227Z,96533.75
2023-05-20T05:19:57.594Z,96534.78
2023-05-20T05:22:26.085Z,96547.31
2023-05-20T05:24:53.309Z,96535.84
2023-05-20T05:27:21.197Z,96516.63
2023-05-20T05:29:48.089Z,96532.78
2023-05-20T05:32:15.076Z,96541.94
2023-05-20T05:34:41.941Z,96488.59
2023-05-20T05:37:08.807Z,96536.19
2023-05-20T05:39:37.865Z,96528.69
2023-05-20T05:42:05.682Z,96540.16
2023-05-20T05:44:33.870Z,96527.91
2023-05-20T05:47:00.930Z,96507.56
2023-05-20T05:49:28.068Z,96503.59
2023-05-20T05:51:55.683Z,96503.34
2023-05-20T05:54:23.697Z,96469.88
2023-05-20T05:56:52.018Z,96515.22
2023-05-20T05:59:19.926Z,96519.81
2023-05-20T06:01:47.040Z,96513.59
2023-05-20T06:04:14.966Z,96526.84
2023-05-20T06:06:42.165Z,96515.75
2023-05-20T06:09:09.244Z,96527.91
2023-05-20T06:11:36.676Z,96486.97
2023-05-20T06:14:03.873Z,96523.28
2023-05-20T06:16:31.202Z,96520.28
2023-05-20T06:19:02.649Z,96495.81
2023-05-20T06:21:32.826Z,96526.03
2023-05-20T06:24:00.007Z,96507.44
2023-05-20T06:26:27.150Z,96530.25
2023-05-20T06:28:54.207Z,96518.38
2023-05-20T06:31:21.980Z,96493.31
2023-05-20T06:33:49.364Z,96512.75
2023-05-20T06:36:17.566Z,96508.94
2023-05-20T06:38:44.698Z,96509.47
2023-05-20T06:41:13.891Z,96504.59
2023-05-20T06:43:40.926Z,96511.06
2023-05-20T06:46:26.333Z,96493.25
2023-05-20T06:49:01.655Z,96488.91
2023-05-20T06:51:28.796Z,96511.44
2023-05-20T06:53:56.158Z,96497.56
2023-05-20T06:56:24.370Z,96498.34
2023-05-20T06:58:51.382Z,96502.44
2023-05-20T07:01:18.924Z,96513.94
2023-05-20T07:03:47.162Z,96517.69
2023-05-20T07:06:14.269Z,96499.00
2023-05-20T07:08:41.459Z,96513.59
2023-05-20T07:11:09.193Z,96499.31
2023-05-20T07:13:36.157Z,96507.44
2023-05-20T07:16:03.294Z,96489.56
2023-05-20T07:18:30.268Z,96503.28
2023-05-20T07:20:57.947Z,96512.53
2023-05-20T07:23:47.195Z,96495.91
2023-05-20T07:26:14.150Z,96502.72
2023-05-20T07:28:41.626Z,96490.13
2023-05-20T07:31:08.621Z,96507.94
2023-05-20T07:33:42.188Z,96494.19
2023-05-20T07:36:11.274Z,96480.09
2023-05-20T07:38:41.325Z,96451.00
2023-05-20T07:41:12.716Z,96509.19
2023-05-20T07:43:39.841Z,96506.38
2023-05-20T07:46:07.318Z,96496.25
2023-05-20T07:48:34.341Z,96487.94
2023-05-20T07:51:01.703Z,96496.09
2023-05-20T07:53:29.128Z,96483.78
2023-05-20T07:55:56.765Z,96482.44
2023-05-20T07:58:27.434Z,96501.44
2023-05-20T08:00:54.616Z,96475.63
2023-05-20T08:03:22.836Z,96491.56
2023-05-20T08:05:59.138Z,96499.13
2023-05-20T08:08:27.086Z,96514.84
2023-05-20T08:10:58.858Z,96507.66
2023-05-20T08:13:26.966Z,96475.22
2023-05-20T08:15:55.077Z,96509.38
2023-05-20T08:18:22.877Z,96504.66
2023-05-20T08:20:49.844Z,96506.50
2023-05-20T08:23:17.040Z,96491.19
2023-05-20T08:25:46.978Z,96491.16
2023-05-20T08:28:14.632Z,96511.69
2023-05-20T08:30:42.005Z,96484.84
2023-05-20T08:33:09.254Z,96473.38
2023-05-20T08:35:37.994Z,96485.81
2023-05-20T08:38:05.007Z,96438.28
2023-05-20T08:40:32.078Z,96478.53
2023-05-20T08:42:59.549Z,96481.66
2023-05-20T08:45:28.876Z,96496.84
2023-05-20T08:48:01.888Z,96488.72
2023-05-20T08:50:28.885Z,96492.28
2023-05-20T08:52:55.909Z,96493.56
2023-05-20T08:55:49.364Z,96480.78
2023-05-20T08:58:16.530Z,96488.28
2023-05-20T09:00:43.533Z,96469.63
2023-05-20T09:03:10.491Z,96489.09
2023-05-20T09:05:37.553Z,96482.94
2023-05-20T09:08:08.442Z,96466.56
2023-05-20T09:10:36.659Z,96497.25
2023-05-20T09:13:05.069Z,96490.84
2023-05-20T09:15:33.403Z,96480.78
2023-05-20T09:18:05.100Z,96465.78
2023-05-20T09:20:34.936Z,96469.63
2023-05-20T09:23:03.315Z,96494.41
2023-05-20T09:25:30.433Z,96494.63
2023-05-20T09:27:57.494Z,96488.63
2023-05-20T09:30:25.257Z,96490.13
2023-05-20T09:32:56.805Z,96481.41
2023-05-20T09:35:25.050Z,96487.25
2023-05-20T09:37:58.891Z,96496.13
2023-05-20T09:40:28.165Z,96496.47
2023-05-20T09:43:03.071Z,96504.19
2023-05-20T09:45:30.668Z,96507.16
2023-05-20T09:47:58.334Z,96484.19
2023-05-20T09:50:26.106Z,96486.38
2023-05-20T09:52:53.902Z,96508.38
2023-05-20T09:55:22.991Z,96501.41
2023-05-20T09:57:50.249Z,96485.19
2023-05-20T10:00:20.065Z,96474.06
2023-05-20T10:02:50.054Z,96474.97
2023-05-20T10:05:27.799Z,96471.88
2023-05-20T10:08:06.242Z,96461.41
2023-05-20T10:10:36.143Z,96464.47
2023-05-20T10:13:13.731Z,96454.00
2023-05-20T10:16:18.982Z,96472.13
2023-05-20T10:19:19.745Z,96474.06
2023-05-20T10:22:06.463Z,96442.09
2023-05-20T10:24:44.247Z,96473.75
2023-05-20T10:27:15.895Z,96458.78
2023-05-20T10:29:51.648Z,96464.16
2023-05-20T10:32:29.760Z,96466.84
2023-05-20T10:35:09.436Z,96448.41
2023-05-20T10:37:48.480Z,96461.47
2023-05-20T10:40:18.412Z,96455.34
2023-05-20T10:42:46.312Z,96458.84
2023-05-20T10:45:24.749Z,96438.22
2023-05-20T10:47:57.209Z,96468.59
2023-05-20T10:50:36.367Z,96454.50
2023-05-20T10:53:05.511Z,96450.88
2023-05-20T10:55:37.684Z,96430.09
2023-05-20T10:58:06.306Z,96411.78
2023-05-20T11:00:38.116Z,96430.97
2023-05-20T11:03:06.845Z,96423.81
2023-05-20T11:05:34.007Z,96431.09
2023-05-20T11:08:13.637Z,96412.31
2023-05-20T11:10:47.641Z,96419.25
2023-05-20T11:13:17.396Z,96420.38
2023-05-20T11:15:44.516Z,96418.84
2023-05-20T11:18:12.736Z,96400.03
2023-05-20T11:20:39.688Z,96406.59
2023-05-20T11:23:07.009Z,96409.25
2023-05-20T11:25:34.131Z,96357.88
2023-05-20T11:28:01.049Z,96392.41
2023-05-20T11:30:28.020Z,96394.19
2023-05-20T11:33:02.591Z,96398.50
2023-05-20T11:35:32.441Z,96411.88
2023-05-20T11:38:09.771Z,96400.03
2023-05-20T11:40:49.732Z,96390.41
2023-05-20T11:43:18.130Z,96385.78
2023-05-20T11:45:47.402Z,96397.19
2023-05-20T11:48:17.147Z,96395.63
2023-05-20T11:50:46.602Z,96382.84
2023-05-20T11:53:21.643Z,96381.00
2023-05-20T11:55:54.131Z,96376.56
2023-05-20T11:58:23.129Z,96371.53
2023-05-20T12:00:55.080Z,96379.97
2023-05-20T12:03:29.358Z,96360.38
2023-05-20T12:05:56.453Z,96378.84
2023-05-20T12:08:23.498Z,96351.22
2023-05-20T12:10:50.765Z,96365.88
2023-05-20T12:13:18.091Z,96315.53
2023-05-20T12:15:45.087Z,96335.56
2023-05-20T12:18:12.136Z,96342.13
2023-05-20T12:20:39.518Z,96351.47
2023-05-20T12:23:06.720Z,96338.88
2023-05-20T12:25:33.743Z,96350.94
2023-05-20T12:28:02.722Z,96360.69
2023-05-20T12:30:29.710Z,96351.38
2023-05-20T12:32:57.150Z,96359.28
2023-05-20T12:35:38.268Z,96360.16
2023-05-20T12:38:05.714Z,96348.31
2023-05-20T12:40:33.571Z,96339.03
2023-05-20T12:43:04.741Z,96340.72
2023-05-20T12:45:31.766Z,96308.59
2023-05-20T12:47:59.099Z,96336.66
2023-05-20T12:50:26.235Z,96331.41
2023-05-20T12:52:53.722Z,96331.91
2023-05-20T12:55:20.936Z,96323.38
2023-05-20T12:57:48.173Z,96341.75
2023-05-20T13:00:15.832Z,96324.78
2023-05-20T13:02:43.522Z,96339.59
2023-05-20T13:05:11.695Z,96337.38
2023-05-20T13:07:38.751Z,96320.38
2023-05-20T13:10:07.314Z,96328.50
2023-05-20T13:12:35.172Z,96303.44
2023-05-20T13:15:02.355Z,96310.97
2023-05-20T13:17:29.275Z,96321.69
2023-05-20T13:19:56.524Z,96308.78
2023-05-20T13:22:23.634Z,96322.34
2023-05-20T13:24:50.859Z,96310.50
2023-05-20T13:27:17.814Z,96315.97
2023-05-20T13:29:44.860Z,96292.88
2023-05-20T13:32:11.817Z,96283.72
2023-05-20T13:34:39.161Z,96300.78
2023-05-20T13:37:06.904Z,96310.69
2023-05-20T13:39:34.243Z,96294.63
2023-05-20T13:42:01.238Z,96277.38
2023-05-20T13:44:28.570Z,96285.53
2023-05-20T13:46:56.676Z,96293.59
2023-05-20T13:49:23.637Z,96285.91
2023-05-20T13:51:50.514Z,96275.84
2023-05-20T13:54:17.439Z,96283.19
2023-05-20T13:56:44.430Z,96272.69
2023-05-20T13:59:11.394Z,96280.81
2023-05-20T14:01:41.222Z,96285.84
2023-05-20T14:04:08.358Z,96269.78
2023-05-20T14:06:35.348Z,96281.13
2023-05-20T14:09:03.059Z,96261.44
2023-05-20T14:11:29.977Z,96270.28
2023-05-20T14:13:56.990Z,96270.94
2023-05-20T14:16:24.031Z,96258.66
2023-05-20T14:18:51.117Z,96248.31
2023-05-20T14:21:18.050Z,96268.25
2023-05-20T14:23:45.449Z,96267.00
2023-05-20T14:26:12.431Z,96250.59
2023-05-20T14:28:39.538Z,96257.19
2023-05-20T14:31:09.591Z,96257.00
2023-05-20T14:33:36.860Z,96253.97
2023-05-20T14:36:04.263Z,96235.44
2023-05-20T14:38:31.511Z,96232.59
2023-05-20T14:40:58.525Z,96235.00
2023-05-20T14:43:26.073Z,96237.63
2023-05-20T14:45:53.263Z,96240.31
2023-05-20T14:48:23.288Z,96226.63
2023-05-20T14:50:50.227Z,96242.41
2023-05-20T14:53:17.763Z,96218.72
2023-05-20T14:55:44.653Z,96241.19
2023-05-20T14:58:12.008Z,96244.16
2023-05-20T15:00:39.521Z,96235.72
2023-05-20T15:03:06.785Z,96234.72
2023-05-20T15:05:33.978Z,96229.63
2023-05-20T15:08:00.952Z,96236.69
2023-05-20T15:10:27.866Z,96214.59
2023-05-20T15:12:55.161Z,96211.00
2023-05-20T15:15:22.164Z,96209.16
2023-05-20T15:17:49.056Z,96228.09
2023-05-20T15:20:16.036Z,96206.09
2023-05-20T15:22:45.970Z,96240.59
2023-05-20T15:25:12.895Z,96197.25
2023-05-20T15:27:42.367Z,96207.63
2023-05-20T15:30:10.578Z,96237.59
2023-05-20T15:32:37.812Z,96224.34
2023-05-20T15:35:05.417Z,96205.16
2023-05-20T15:37:32.340Z,96222.84
2023-05-20T15:39:59.228Z,96221.91
2023-05-20T15:42:26.130Z,96235.06
2023-05-20T15:44:53.153Z,96203.53
2023-05-20T15:47:20.158Z,96207.03
2023-05-20T15:49:47.112Z,96188.91
2023-05-20T15:52:14.312Z,96215.88
2023-05-20T15:54:41.386Z,96214.44
2023-05-20T15:57:08.327Z,96207.06
2023-05-20T15:59:35.242Z,96208.44
2023-05-20T16:02:02.198Z,96200.84
2023-05-20T16:04:29.201Z,96208.19
2023-05-20T16:06:56.286Z,96209.16
2023-05-20T16:09:23.254Z,96196.41
2023-05-20T16:11:50.170Z,96190.94
2023-05-20T16:14:17.365Z,96213.94
2023-05-20T16:16:44.522Z,96209.09
2023-05-20T16:19:11.655Z,96195.28
2023-05-20T16:21:38.786Z,96190.03
2023-05-20T16:24:05.860Z,96191.03
2023-05-20T16:26:32.835Z,96174.16
2023-05-20T16:28:59.754Z,96203.81
2023-05-20T16:31:26.947Z,96194.78
2023-05-20T16:33:53.890Z,96204.13
2023-05-20T16:36:21.786Z,96184.72
2023-05-20T16:38:48.707Z,96208.03
2023-05-20T16:41:16.372Z,96194.28
2023-05-20T16:43:43.473Z,96220.69
2023-05-20T16:46:10.852Z,96214.06
2023-05-20T16:48:37.830Z,96200.44
2023-05-20T16:51:04.966Z,96208.41
2023-05-20T16:53:31.918Z,96224.94
2023-05-20T16:55:58.966Z,96217.44
2023-05-20T16:58:25.845Z,96204.03
2023-05-20T17:00:52.924Z,96221.19
2023-05-20T17:03:20.931Z,96235.34
2023-05-20T17:05:47.846Z,96218.16
2023-05-20T17:08:14.842Z,96230.81
2023-05-20T17:10:41.728Z,96224.22
2023-05-20T17:13:08.684Z,96226.22
2023-05-20T17:15:37.390Z,96225.13
2023-05-20T17:18:04.488Z,96251.16
2023-05-20T17:20:32.130Z,96243.50
2023-05-20T17:22:59.382Z,96242.78
2023-05-20T17:25:26.403Z,96240.47
2023-05-20T17:27:53.316Z,96238.91
2023-05-20T17:30:20.406Z,96225.97
2023-05-20T17:32:47.370Z,96258.50
2023-05-20T17:35:14.391Z,96260.41
2023-05-20T17:37:41.557Z,96271.91
2023-05-20T17:40:08.978Z,96234.41
2023-05-20T17:42:35.922Z,96260.06
2023-05-20T17:45:02.887Z,96252.03
2023-05-20T17:47:29.892Z,96246.75
2023-05-20T17:49:56.857Z,96262.44
2023-05-20T17:52:23.784Z,96255.16
2023-05-20T17:54:50.800Z,96261.31
2023-05-20T17:57:17.806Z,96215.00
2023-05-20T17:59:45.688Z,96264.00
2023-05-20T18:02:12.954Z,96273.22
2023-05-20T18:04:39.875Z,96264.75
2023-05-20T18:07:07.805Z,96244.47
2023-05-20T18:09:34.910Z,96255.97
2023-05-20T18:12:01.862Z,96241.84
2023-05-20T18:14:28.840Z,96249.84
2023-05-20T18:16:57.566Z,96269.78
2023-05-20T18:19:24.985Z,96273.97
2023-05-20T18:21:54.374Z,96259.81
2023-05-20T18:24:21.435Z,96271.31
2023-05-20T18:26:48.536Z,96265.19
2023-05-20T18:29:15.554Z,96254.47
2023-05-20T18:31:43.600Z,96268.22
2023-05-20T18:34:10.955Z,96266.31
2023-05-20T18:36:37.946Z,96253.66
2023-05-20T18:39:05.147Z,96239.50
2023-05-20T18:41:45.862Z,96267.06
2023-05-20T18:44:18.767Z,96269.34
2023-05-20T18:46:46.437Z,96262.47
2023-05-20T18:49:13.683Z,96264.75
2023-05-20T18:51:41.333Z,96258.59
2023-05-20T18:54:08.413Z,96245.56
2023-05-20T18:56:36.140Z,96270.88
2023-05-20T18:59:03.430Z,96278.09
2023-05-20T19:01:30.615Z,96254.75
2023-05-20T19:03:57.634Z,96259.31
2023-05-20T19:06:24.726Z,96277.38
2023-05-20T19:08:51.829Z,96259.31
2023-05-20T19:11:18.826Z,96276.94
2023-05-20T19:13:45.932Z,96255.88
2023-05-20T19:16:12.936Z,96276.94
2023-05-20T19:18:40.007Z,96272.72
2023-05-20T19:21:06.954Z,96275.00
2023-05-20T19:23:33.981Z,96279.56
2023-05-20T19:26:00.916Z,96260.78
2023-05-20T19:28:27.901Z,96266.13
2023-05-20T19:30:55.044Z,96268.47
2023-05-20T19:33:22.162Z,96280.66
2023-05-20T19:35:49.407Z,96276.06
2023-05-20T19:38:16.618Z,96284.50
2023-05-20T19:40:44.932Z,96268.75
2023-05-20T19:43:11.912Z,96284.47
2023-05-20T19:45:39.160Z,96276.78
2023-05-20T19:48:06.991Z,96269.88
2023-05-20T19:50:34.545Z,96292.13
2023-05-20T19:53:06.354Z,96257.53
2023-05-20T19:55:35.433Z,96264.81
2023-05-20T19:58:02.775Z,96296.22
2023-05-20T20:00:29.945Z,96282.41
2023-05-20T20:02:57.921Z,96279.72
2023-05-20T20:05:26.208Z,96289.25
2023-05-20T20:07:53.379Z,96285.78
2023-05-20T20:10:20.496Z,96283.84
2023-05-20T20:12:47.695Z,96288.50
2023-05-20T20:15:14.911Z,96259.22
2023-05-20T20:17:46.108Z,96270.75
2023-05-20T20:20:14.462Z,96275.72
2023-05-20T20:22:42.028Z,96282.59
2023-05-20T20:25:09.241Z,96275.31
2023-05-20T20:27:36.196Z,96251.88
2023-05-20T20:30:03.324Z,96250.34
2023-05-20T20:32:30.449Z,96274.47
2023-05-20T20:34:58.320Z,96260.97
2023-05-20T20:37:26.994Z,96266.34
2023-05-20T20:39:54.840Z,96281.72
2023-05-20T20:42:24.630Z,96280.44
2023-05-20T20:44:53.018Z,96291.94
2023-05-20T20:47:20.485Z,96271.19
2023-05-20T20:49:48.109Z,96272.31
2023-05-20T20:52:16.339Z,96282.31
2023-05-20T20:54:43.691Z,96265.41
2023-05-20T20:57:11.815Z,96279.59
2023-05-20T20:59:40.308Z,96268.81
2023-05-20T21:02:08.135Z,96289.56
2023-05-20T21:04:35.517Z,96270.34
2023-05-20T21:07:03.376Z,96276.16
2023-05-20T21:09:30.831Z,96268.47
2023-05-20T21:12:00.634Z,96280.69
2023-05-20T21:14:28.203Z,96259.56
2023-05-20T21:16:55.582Z,96248.38
2023-05-20T21:19:22.710Z,96279.41
2023-05-20T21:21:49.731Z,96257.91
2023-05-20T21:24:16.720Z,96268.66
2023-05-20T21:26:43.730Z,96256.66
2023-05-20T21:29:12.244Z,96272.09
2023-05-20T21:31:39.202Z,96240.56
2023-05-20T21:34:06.188Z,96245.94
2023-05-20T21:36:33.484Z,96278.13
2023-05-20T21:39:00.490Z,96246.31
2023-05-20T21:41:27.494Z,96251.66
2023-05-20T21:43:54.401Z,96252.00
2023-05-20T21:46:21.579Z,96266.25
2023-05-20T21:48:48.576Z,96253.03
2023-05-20T21:51:15.605Z,96261.47
2023-05-20T21:53:42.708Z,96264.88
2023-05-20T21:56:09.684Z,96269.13
2023-05-20T21:58:41.262Z,96258.63
2023-05-20T22:01:10.381Z,96278.22
2023-05-20T22:03:38.558Z,96268.94
2023-05-20T22:06:06.528Z,96253.13
2023-05-20T22:08:34.093Z,96266.56
2023-05-20T22:11:05.614Z,96240.81
2023-05-20T22:13:33.928Z,96249.31
2023-05-20T22:16:02.230Z,96225.50
2023-05-20T22:18:29.600Z,96229.31
2023-05-20T22:20:59.454Z,96255.81
2023-05-20T22:23:27.135Z,96257.41
2023-05-20T22:25:55.244Z,96241.59
2023-05-20T22:28:23.879Z,96244.69
2023-05-20T22:30:51.726Z,96252.00
2023-05-20T22:33:18.886Z,96257.41
2023-05-20T22:35:45.841Z,96240.06
2023-05-20T22:38:12.813Z,96220.53
2023-05-20T22:40:39.772Z,96234.31
2023-05-20T22:43:06.735Z,96245.72
2023-05-20T22:45:34.025Z,96213.97
2023-05-20T22:48:02.208Z,96231.25
2023-05-20T22:50:29.252Z,96241.19
2023-05-20T22:52:56.248Z,96225.50
2023-05-20T22:55:24.144Z,96232.13
2023-05-20T22:57:51.098Z,96229.31
2023-05-20T23:00:18.473Z,96217.53
2023-05-20T23:02:50.217Z,96237.34
2023-05-20T23:05:17.584Z,96200.09
2023-05-20T23:07:45.146Z,96231.25
2023-05-20T23:10:12.179Z,96224.28
2023-05-20T23:12:39.211Z,96216.66
2023-05-20T23:15:06.931Z,96222.84
2023-05-20T23:17:33.912Z,96192.22
2023-05-20T23:20:01.268Z,96222.84
2023-05-20T23:22:28.211Z,96213.22
2023-05-20T23:24:55.130Z,96210.69
2023-05-20T23:27:22.023Z,96196.03
2023-05-20T23:29:48.943Z,96201.03
2023-05-20T23:32:15.917Z,96195.84
2023-05-20T23:34:43.820Z,96192.06
2023-05-20T23:37:10.759Z,96175.13
2023-05-20T23:39:37.758Z,96197.66
2023-05-20T23:42:05.310Z,96176.31
2023-05-20T23:44:32.192Z,96215.75
2023-05-20T23:46:59.083Z,96183.16
2023-05-20T23:49:27.398Z,96200.31
2023-05-20T23:51:54.257Z,96181.06
2023-05-20T23:54:21.315Z,96190.94
2023-05-20T23:56:48.217Z,96196.69
2023-05-20T23:59:15.551Z,96155.97
